sensor_id;sensor_type;location;lat;lon;timestamp;temperature;humidity
802;DHT22;383;48.766;9.270;2022-09-21T00:01:11;7.90;98.50
802;DHT22;383;48.766;9.270;2022-09-21T00:03:39;7.80;98.70
802;DHT22;383;48.766;9.270;2022-09-21T00:06:08;7.80;98.70
802;DHT22;383;48.766;9.270;2022-09-21T00:08:36;7.80;98.40
802;DHT22;383;48.766;9.270;2022-09-21T00:11:04;7.80;98.50
802;DHT22;383;48.766;9.270;2022-09-21T00:13:31;7.80;98.60
802;DHT22;383;48.766;9.270;2022-09-21T00:16:00;7.80;98.60
802;DHT22;383;48.766;9.270;2022-09-21T00:18:29;7.80;98.50
802;DHT22;383;48.766;9.270;2022-09-21T00:20:56;7.70;98.40
802;DHT22;383;48.766;9.270;2022-09-21T00:23:23;7.60;98.70
802;DHT22;383;48.766;9.270;2022-09-21T00:25:51;7.60;98.90
802;DHT22;383;48.766;9.270;2022-09-21T00:28:17;7.50;99.10
802;DHT22;383;48.766;9.270;2022-09-21T00:30:44;7.50;99.20
802;DHT22;383;48.766;9.270;2022-09-21T00:33:17;7.50;99.40
802;DHT22;383;48.766;9.270;2022-09-21T00:35:44;7.50;99.30
802;DHT22;383;48.766;9.270;2022-09-21T00:38:11;7.50;99.00
802;DHT22;383;48.766;9.270;2022-09-21T00:40:37;7.60;98.70
802;DHT22;383;48.766;9.270;2022-09-21T00:43:11;7.60;98.60
802;DHT22;383;48.766;9.270;2022-09-21T00:45:38;7.60;98.50
802;DHT22;383;48.766;9.270;2022-09-21T00:48:05;7.60;98.40
802;DHT22;383;48.766;9.270;2022-09-21T00:50:34;7.50;98.50
802;DHT22;383;48.766;9.270;2022-09-21T00:53:04;7.50;98.70
802;DHT22;383;48.766;9.270;2022-09-21T00:55:33;7.40;98.80
802;DHT22;383;48.766;9.270;2022-09-21T00:58:04;7.40;98.80
802;DHT22;383;48.766;9.270;2022-09-21T01:00:32;7.40;98.90
802;DHT22;383;48.766;9.270;2022-09-21T01:02:59;7.30;99.20
802;DHT22;383;48.766;9.270;2022-09-21T01:05:26;7.30;99.40
802;DHT22;383;48.766;9.270;2022-09-21T01:07:56;7.30;99.30
802;DHT22;383;48.766;9.270;2022-09-21T01:10:24;7.30;99.40
802;DHT22;383;48.766;9.270;2022-09-21T01:13:03;7.30;99.30
802;DHT22;383;48.766;9.270;2022-09-21T01:15:38;7.30;99.20
802;DHT22;383;48.766;9.270;2022-09-21T01:18:11;7.30;99.20
802;DHT22;383;48.766;9.270;2022-09-21T01:26:42;7.20;98.90
802;DHT22;383;48.766;9.270;2022-09-21T01:29:18;7.20;99.10
802;DHT22;383;48.766;9.270;2022-09-21T01:31:50;7.20;99.00
802;DHT22;383;48.766;9.270;2022-09-21T01:34:24;7.10;99.20
802;DHT22;383;48.766;9.270;2022-09-21T01:36:55;7.10;99.20
802;DHT22;383;48.766;9.270;2022-09-21T01:39:23;7.10;99.30
802;DHT22;383;48.766;9.270;2022-09-21T01:41:51;7.00;99.50
802;DHT22;383;48.766;9.270;2022-09-21T01:44:22;7.00;99.40
802;DHT22;383;48.766;9.270;2022-09-21T01:46:50;7.00;99.10
802;DHT22;383;48.766;9.270;2022-09-21T01:49:22;7.00;99.10
802;DHT22;383;48.766;9.270;2022-09-21T01:51:54;7.00;99.20
802;DHT22;383;48.766;9.270;2022-09-21T01:54:24;7.00;99.30
802;DHT22;383;48.766;9.270;2022-09-21T01:56:57;7.00;99.20
802;DHT22;383;48.766;9.270;2022-09-21T01:59:31;7.00;99.20
802;DHT22;383;48.766;9.270;2022-09-21T02:02:05;6.90;99.10
802;DHT22;383;48.766;9.270;2022-09-21T02:04:34;6.90;99.10
802;DHT22;383;48.766;9.270;2022-09-21T02:07:03;6.90;99.10
802;DHT22;383;48.766;9.270;2022-09-21T02:09:30;6.80;99.40
802;DHT22;383;48.766;9.270;2022-09-21T02:11:57;6.80;99.50
802;DHT22;383;48.766;9.270;2022-09-21T02:14:27;6.80;99.40
802;DHT22;383;48.766;9.270;2022-09-21T02:17:04;6.70;99.40
802;DHT22;383;48.766;9.270;2022-09-21T02:19:41;6.70;99.80
802;DHT22;383;48.766;9.270;2022-09-21T02:22:13;6.70;99.50
802;DHT22;383;48.766;9.270;2022-09-21T02:24:43;6.70;99.40
802;DHT22;383;48.766;9.270;2022-09-21T02:27:20;6.70;99.50
802;DHT22;383;48.766;9.270;2022-09-21T02:29:53;6.70;99.40
802;DHT22;383;48.766;9.270;2022-09-21T02:32:29;6.70;99.40
802;DHT22;383;48.766;9.270;2022-09-21T02:35:02;6.70;99.20
802;DHT22;383;48.766;9.270;2022-09-21T02:37:34;6.70;99.20
802;DHT22;383;48.766;9.270;2022-09-21T02:40:09;6.60;99.30
802;DHT22;383;48.766;9.270;2022-09-21T02:42:45;6.60;99.50
802;DHT22;383;48.766;9.270;2022-09-21T02:45:18;6.50;99.60
802;DHT22;383;48.766;9.270;2022-09-21T02:47:50;6.50;99.90
802;DHT22;383;48.766;9.270;2022-09-21T02:50:20;6.50;99.80
802;DHT22;383;48.766;9.270;2022-09-21T02:52:50;6.50;99.70
802;DHT22;383;48.766;9.270;2022-09-21T02:55:17;6.50;99.70
802;DHT22;383;48.766;9.270;2022-09-21T02:57:46;6.50;99.90
802;DHT22;383;48.766;9.270;2022-09-21T03:00:16;6.50;99.80
802;DHT22;383;48.766;9.270;2022-09-21T03:02:43;6.50;99.70
802;DHT22;383;48.766;9.270;2022-09-21T03:05:12;6.50;99.40
802;DHT22;383;48.766;9.270;2022-09-21T03:07:39;6.50;99.60
802;DHT22;383;48.766;9.270;2022-09-21T03:10:06;6.50;99.30
802;DHT22;383;48.766;9.270;2022-09-21T03:12:33;6.50;99.00
802;DHT22;383;48.766;9.270;2022-09-21T03:15:01;6.50;99.30
802;DHT22;383;48.766;9.270;2022-09-21T03:17:29;6.40;99.40
802;DHT22;383;48.766;9.270;2022-09-21T03:19:55;6.40;99.60
802;DHT22;383;48.766;9.270;2022-09-21T03:22:22;6.40;99.60
802;DHT22;383;48.766;9.270;2022-09-21T03:24:49;6.40;99.60
802;DHT22;383;48.766;9.270;2022-09-21T03:27:19;6.40;99.40
802;DHT22;383;48.766;9.270;2022-09-21T03:29:46;6.40;99.90
802;DHT22;383;48.766;9.270;2022-09-21T03:32:14;6.40;99.80
802;DHT22;383;48.766;9.270;2022-09-21T03:34:42;6.40;99.90
802;DHT22;383;48.766;9.270;2022-09-21T03:37:09;6.40;99.90
802;DHT22;383;48.766;9.270;2022-09-21T03:39:36;6.40;99.80
802;DHT22;383;48.766;9.270;2022-09-21T03:42:03;6.40;99.70
802;DHT22;383;48.766;9.270;2022-09-21T03:44:30;6.40;99.90
802;DHT22;383;48.766;9.270;2022-09-21T03:46:57;6.30;99.90
802;DHT22;383;48.766;9.270;2022-09-21T03:49:24;6.30;99.90
802;DHT22;383;48.766;9.270;2022-09-21T03:51:52;6.30;99.90
802;DHT22;383;48.766;9.270;2022-09-21T03:54:20;6.30;99.90
802;DHT22;383;48.766;9.270;2022-09-21T03:56:46;6.40;99.90
802;DHT22;383;48.766;9.270;2022-09-21T03:59:13;6.40;99.90
802;DHT22;383;48.766;9.270;2022-09-21T04:01:39;6.40;99.60
802;DHT22;383;48.766;9.270;2022-09-21T04:04:06;6.30;99.90
802;DHT22;383;48.766;9.270;2022-09-21T04:06:33;6.30;99.90
802;DHT22;383;48.766;9.270;2022-09-21T04:09:01;6.30;99.90
802;DHT22;383;48.766;9.270;2022-09-21T04:11:28;6.30;99.90
802;DHT22;383;48.766;9.270;2022-09-21T04:13:56;6.20;99.90
802;DHT22;383;48.766;9.270;2022-09-21T04:16:23;6.20;99.90
802;DHT22;383;48.766;9.270;2022-09-21T04:18:50;6.20;99.90
802;DHT22;383;48.766;9.270;2022-09-21T04:21:17;6.20;99.90
802;DHT22;383;48.766;9.270;2022-09-21T04:23:44;6.20;99.90
802;DHT22;383;48.766;9.270;2022-09-21T04:26:24;6.20;99.90
802;DHT22;383;48.766;9.270;2022-09-21T04:28:51;6.20;99.90
802;DHT22;383;48.766;9.270;2022-09-21T04:31:19;6.20;99.90
802;DHT22;383;48.766;9.270;2022-09-21T04:33:50;6.20;99.80
802;DHT22;383;48.766;9.270;2022-09-21T04:36:17;6.30;99.40
802;DHT22;383;48.766;9.270;2022-09-21T04:38:44;6.30;98.90
802;DHT22;383;48.766;9.270;2022-09-21T04:41:11;6.20;98.70
802;DHT22;383;48.766;9.270;2022-09-21T04:43:41;6.20;98.80
802;DHT22;383;48.766;9.270;2022-09-21T04:46:10;6.20;98.70
802;DHT22;383;48.766;9.270;2022-09-21T04:48:37;6.10;99.20
802;DHT22;383;48.766;9.270;2022-09-21T04:51:05;6.10;99.30
802;DHT22;383;48.766;9.270;2022-09-21T04:53:32;6.10;99.80
802;DHT22;383;48.766;9.270;2022-09-21T04:56:00;6.10;99.60
802;DHT22;383;48.766;9.270;2022-09-21T04:58:27;6.00;99.70
802;DHT22;383;48.766;9.270;2022-09-21T05:00:55;6.10;99.60
802;DHT22;383;48.766;9.270;2022-09-21T05:03:22;6.10;99.20
802;DHT22;383;48.766;9.270;2022-09-21T05:05:51;6.10;98.80
802;DHT22;383;48.766;9.270;2022-09-21T05:08:19;6.00;99.20
802;DHT22;383;48.766;9.270;2022-09-21T05:11:08;6.00;99.40
802;DHT22;383;48.766;9.270;2022-09-21T05:13:34;6.00;99.20
802;DHT22;383;48.766;9.270;2022-09-21T05:16:03;5.90;99.50
802;DHT22;383;48.766;9.270;2022-09-21T05:18:29;5.90;99.70
802;DHT22;383;48.766;9.270;2022-09-21T05:20:57;5.90;99.70
802;DHT22;383;48.766;9.270;2022-09-21T05:23:24;5.90;99.70
802;DHT22;383;48.766;9.270;2022-09-21T05:25:51;5.90;99.70
802;DHT22;383;48.766;9.270;2022-09-21T05:28:19;5.90;99.40
802;DHT22;383;48.766;9.270;2022-09-21T05:30:51;6.00;99.10
802;DHT22;383;48.766;9.270;2022-09-21T05:33:21;5.90;99.20
802;DHT22;383;48.766;9.270;2022-09-21T05:35:59;5.90;99.50
802;DHT22;383;48.766;9.270;2022-09-21T05:38:28;5.90;99.70
802;DHT22;383;48.766;9.270;2022-09-21T05:40:55;5.90;99.90
802;DHT22;383;48.766;9.270;2022-09-21T05:43:22;5.90;99.90
802;DHT22;383;48.766;9.270;2022-09-21T05:45:53;5.90;99.80
802;DHT22;383;48.766;9.270;2022-09-21T05:48:27;6.00;99.90
802;DHT22;383;48.766;9.270;2022-09-21T05:51:02;6.00;99.70
802;DHT22;383;48.766;9.270;2022-09-21T05:53:43;5.90;99.90
802;DHT22;383;48.766;9.270;2022-09-21T05:56:20;6.00;99.90
802;DHT22;383;48.766;9.270;2022-09-21T05:58:55;6.00;99.60
802;DHT22;383;48.766;9.270;2022-09-21T06:01:35;6.00;99.50
802;DHT22;383;48.766;9.270;2022-09-21T06:04:09;6.00;99.60
802;DHT22;383;48.766;9.270;2022-09-21T06:06:36;6.10;99.60
802;DHT22;383;48.766;9.270;2022-09-21T06:09:03;6.00;99.80
802;DHT22;383;48.766;9.270;2022-09-21T06:11:30;6.00;99.90
802;DHT22;383;48.766;9.270;2022-09-21T06:13:57;6.10;99.90
802;DHT22;383;48.766;9.270;2022-09-21T06:16:23;6.00;99.90
802;DHT22;383;48.766;9.270;2022-09-21T06:18:50;6.10;99.90
802;DHT22;383;48.766;9.270;2022-09-21T06:21:18;6.20;99.90
802;DHT22;383;48.766;9.270;2022-09-21T06:23:45;6.30;99.90
802;DHT22;383;48.766;9.270;2022-09-21T06:26:11;6.30;99.90
802;DHT22;383;48.766;9.270;2022-09-21T06:28:38;6.20;99.90
802;DHT22;383;48.766;9.270;2022-09-21T06:31:05;6.30;99.90
802;DHT22;383;48.766;9.270;2022-09-21T06:33:31;6.30;99.90
802;DHT22;383;48.766;9.270;2022-09-21T06:36:00;6.30;99.90
802;DHT22;383;48.766;9.270;2022-09-21T06:38:28;6.40;99.90
802;DHT22;383;48.766;9.270;2022-09-21T06:41:00;6.40;99.90
802;DHT22;383;48.766;9.270;2022-09-21T06:43:26;6.50;99.90
802;DHT22;383;48.766;9.270;2022-09-21T06:45:54;6.50;99.90
802;DHT22;383;48.766;9.270;2022-09-21T06:48:21;6.70;99.90
802;DHT22;383;48.766;9.270;2022-09-21T06:50:48;6.70;99.90
802;DHT22;383;48.766;9.270;2022-09-21T06:53:14;6.80;99.90
802;DHT22;383;48.766;9.270;2022-09-21T06:55:43;6.90;99.90
802;DHT22;383;48.766;9.270;2022-09-21T06:58:10;6.90;99.90
802;DHT22;383;48.766;9.270;2022-09-21T07:00:37;7.10;99.90
802;DHT22;383;48.766;9.270;2022-09-21T07:03:03;7.20;99.90
802;DHT22;383;48.766;9.270;2022-09-21T07:05:31;7.20;99.90
802;DHT22;383;48.766;9.270;2022-09-21T07:07:59;7.30;99.90
802;DHT22;383;48.766;9.270;2022-09-21T07:10:25;7.40;99.90
802;DHT22;383;48.766;9.270;2022-09-21T07:12:54;7.50;99.90
802;DHT22;383;48.766;9.270;2022-09-21T07:15:21;7.60;99.90
802;DHT22;383;48.766;9.270;2022-09-21T07:17:48;7.70;99.90
802;DHT22;383;48.766;9.270;2022-09-21T07:20:14;7.80;99.90
802;DHT22;383;48.766;9.270;2022-09-21T07:22:41;7.90;99.90
802;DHT22;383;48.766;9.270;2022-09-21T07:25:08;8.00;99.90
802;DHT22;383;48.766;9.270;2022-09-21T07:27:35;8.10;99.90
802;DHT22;383;48.766;9.270;2022-09-21T07:30:04;8.20;99.90
802;DHT22;383;48.766;9.270;2022-09-21T07:32:32;8.30;99.90
802;DHT22;383;48.766;9.270;2022-09-21T07:34:59;8.40;99.90
802;DHT22;383;48.766;9.270;2022-09-21T07:37:26;8.50;99.90
802;DHT22;383;48.766;9.270;2022-09-21T07:39:53;8.60;99.70
802;DHT22;383;48.766;9.270;2022-09-21T07:42:20;8.70;99.60
802;DHT22;383;48.766;9.270;2022-09-21T07:44:49;8.80;99.40
802;DHT22;383;48.766;9.270;2022-09-21T07:47:20;9.00;98.50
802;DHT22;383;48.766;9.270;2022-09-21T07:49:46;9.10;98.10
802;DHT22;383;48.766;9.270;2022-09-21T07:52:13;9.20;97.90
802;DHT22;383;48.766;9.270;2022-09-21T07:54:40;9.40;97.20
802;DHT22;383;48.766;9.270;2022-09-21T07:57:07;9.50;96.30
802;DHT22;383;48.766;9.270;2022-09-21T07:59:51;9.60;96.50
802;DHT22;383;48.766;9.270;2022-09-21T08:02:17;9.60;96.50
802;DHT22;383;48.766;9.270;2022-09-21T08:04:45;9.70;96.50
802;DHT22;383;48.766;9.270;2022-09-21T08:07:12;9.90;96.20
802;DHT22;383;48.766;9.270;2022-09-21T08:09:39;10.00;95.70
802;DHT22;383;48.766;9.270;2022-09-21T08:12:06;10.10;95.50
802;DHT22;383;48.766;9.270;2022-09-21T08:14:33;10.30;95.10
802;DHT22;383;48.766;9.270;2022-09-21T08:17:00;10.50;94.60
802;DHT22;383;48.766;9.270;2022-09-21T08:19:27;10.60;94.60
802;DHT22;383;48.766;9.270;2022-09-21T08:21:55;10.70;94.50
802;DHT22;383;48.766;9.270;2022-09-21T08:24:22;10.90;93.90
802;DHT22;383;48.766;9.270;2022-09-21T08:26:51;11.00;93.20
802;DHT22;383;48.766;9.270;2022-09-21T08:29:17;11.20;92.00
802;DHT22;383;48.766;9.270;2022-09-21T08:31:44;11.40;91.00
802;DHT22;383;48.766;9.270;2022-09-21T08:34:11;11.60;90.10
802;DHT22;383;48.766;9.270;2022-09-21T08:36:38;11.80;89.80
802;DHT22;383;48.766;9.270;2022-09-21T08:39:07;11.90;89.90
802;DHT22;383;48.766;9.270;2022-09-21T08:41:50;12.00;87.70
802;DHT22;383;48.766;9.270;2022-09-21T08:44:20;12.10;88.10
802;DHT22;383;48.766;9.270;2022-09-21T08:46:54;12.30;87.10
802;DHT22;383;48.766;9.270;2022-09-21T08:49:24;12.40;86.50
802;DHT22;383;48.766;9.270;2022-09-21T08:51:56;12.50;86.00
802;DHT22;383;48.766;9.270;2022-09-21T08:54:29;12.60;86.40
802;DHT22;383;48.766;9.270;2022-09-21T08:56:58;12.80;86.00
802;DHT22;383;48.766;9.270;2022-09-21T08:59:24;12.80;86.90
802;DHT22;383;48.766;9.270;2022-09-21T09:01:58;12.90;86.00
802;DHT22;383;48.766;9.270;2022-09-21T09:04:37;13.10;86.50
802;DHT22;383;48.766;9.270;2022-09-21T09:07:21;13.30;85.20
802;DHT22;383;48.766;9.270;2022-09-21T09:10:05;13.40;83.60
802;DHT22;383;48.766;9.270;2022-09-21T09:12:49;13.60;83.70
802;DHT22;383;48.766;9.270;2022-09-21T09:15:36;13.80;83.60
802;DHT22;383;48.766;9.270;2022-09-21T09:18:10;14.00;81.60
802;DHT22;383;48.766;9.270;2022-09-21T09:20:43;14.10;80.80
802;DHT22;383;48.766;9.270;2022-09-21T09:23:16;14.30;80.60
802;DHT22;383;48.766;9.270;2022-09-21T09:25:49;14.40;80.30
802;DHT22;383;48.766;9.270;2022-09-21T09:28:24;14.50;80.80
802;DHT22;383;48.766;9.270;2022-09-21T09:30:58;14.80;81.10
802;DHT22;383;48.766;9.270;2022-09-21T09:33:29;14.90;80.00
802;DHT22;383;48.766;9.270;2022-09-21T09:36:00;15.00;77.10
802;DHT22;383;48.766;9.270;2022-09-21T09:38:32;14.90;77.00
802;DHT22;383;48.766;9.270;2022-09-21T09:41:19;14.90;78.10
802;DHT22;383;48.766;9.270;2022-09-21T09:44:02;15.00;78.50
802;DHT22;383;48.766;9.270;2022-09-21T09:46:33;15.00;76.20
802;DHT22;383;48.766;9.270;2022-09-21T09:49:17;14.90;77.10
802;DHT22;383;48.766;9.270;2022-09-21T09:51:50;14.90;78.30
802;DHT22;383;48.766;9.270;2022-09-21T09:54:19;14.80;77.90
802;DHT22;383;48.766;9.270;2022-09-21T09:56:48;14.80;78.20
802;DHT22;383;48.766;9.270;2022-09-21T09:59:24;14.80;76.70
802;DHT22;383;48.766;9.270;2022-09-21T10:01:59;14.90;76.50
802;DHT22;383;48.766;9.270;2022-09-21T10:04:26;14.80;76.90
802;DHT22;383;48.766;9.270;2022-09-21T10:06:55;14.90;77.50
802;DHT22;383;48.766;9.270;2022-09-21T10:09:25;15.10;76.60
802;DHT22;383;48.766;9.270;2022-09-21T10:11:57;15.30;76.00
802;DHT22;383;48.766;9.270;2022-09-21T10:14:26;15.60;73.00
802;DHT22;383;48.766;9.270;2022-09-21T10:16:55;16.00;72.00
802;DHT22;383;48.766;9.270;2022-09-21T10:19:25;16.20;71.30
802;DHT22;383;48.766;9.270;2022-09-21T10:21:55;16.30;70.00
802;DHT22;383;48.766;9.270;2022-09-21T10:24:25;16.40;68.40
802;DHT22;383;48.766;9.270;2022-09-21T10:26:55;16.50;68.70
802;DHT22;383;48.766;9.270;2022-09-21T10:29:37;16.60;67.00
802;DHT22;383;48.766;9.270;2022-09-21T10:32:22;16.70;66.70
802;DHT22;383;48.766;9.270;2022-09-21T10:35:14;16.80;67.90
802;DHT22;383;48.766;9.270;2022-09-21T10:37:43;16.80;67.50
802;DHT22;383;48.766;9.270;2022-09-21T10:40:26;17.00;66.00
802;DHT22;383;48.766;9.270;2022-09-21T10:42:57;17.20;64.70
802;DHT22;383;48.766;9.270;2022-09-21T10:45:25;17.50;61.40
802;DHT22;383;48.766;9.270;2022-09-21T10:47:55;17.50;61.30
802;DHT22;383;48.766;9.270;2022-09-21T10:50:27;17.50;61.10
802;DHT22;383;48.766;9.270;2022-09-21T10:52:59;17.60;61.90
802;DHT22;383;48.766;9.270;2022-09-21T10:55:27;17.70;61.40
802;DHT22;383;48.766;9.270;2022-09-21T10:57:56;17.70;61.50
802;DHT22;383;48.766;9.270;2022-09-21T11:00:28;17.70;59.80
802;DHT22;383;48.766;9.270;2022-09-21T11:03:02;17.90;61.10
802;DHT22;383;48.766;9.270;2022-09-21T11:05:33;18.00;58.50
802;DHT22;383;48.766;9.270;2022-09-21T11:08:04;18.00;57.60
802;DHT22;383;48.766;9.270;2022-09-21T11:10:39;18.00;60.40
802;DHT22;383;48.766;9.270;2022-09-21T11:13:22;18.10;59.80
802;DHT22;383;48.766;9.270;2022-09-21T11:15:57;18.30;58.30
802;DHT22;383;48.766;9.270;2022-09-21T11:18:36;18.60;59.50
802;DHT22;383;48.766;9.270;2022-09-21T11:21:13;18.60;59.70
802;DHT22;383;48.766;9.270;2022-09-21T11:23:48;18.70;58.60
802;DHT22;383;48.766;9.270;2022-09-21T11:26:23;18.60;60.10
802;DHT22;383;48.766;9.270;2022-09-21T11:28:56;18.40;60.00
802;DHT22;383;48.766;9.270;2022-09-21T11:31:51;18.20;59.80
802;DHT22;383;48.766;9.270;2022-09-21T11:34:42;18.20;61.00
802;DHT22;383;48.766;9.270;2022-09-21T11:37:20;18.20;58.30
802;DHT22;383;48.766;9.270;2022-09-21T11:40:02;18.00;59.30
802;DHT22;383;48.766;9.270;2022-09-21T11:42:47;17.90;59.60
802;DHT22;383;48.766;9.270;2022-09-21T11:45:28;17.90;59.80
802;DHT22;383;48.766;9.270;2022-09-21T11:48:07;18.00;58.10
802;DHT22;383;48.766;9.270;2022-09-21T11:50:45;18.20;57.20
802;DHT22;383;48.766;9.270;2022-09-21T11:53:40;18.30;56.90
802;DHT22;383;48.766;9.270;2022-09-21T11:56:29;18.40;55.60
802;DHT22;383;48.766;9.270;2022-09-21T11:59:08;18.50;56.20
802;DHT22;383;48.766;9.270;2022-09-21T12:01:47;18.50;55.70
802;DHT22;383;48.766;9.270;2022-09-21T12:04:32;18.50;56.60
802;DHT22;383;48.766;9.270;2022-09-21T12:07:12;18.40;56.90
802;DHT22;383;48.766;9.270;2022-09-21T12:09:52;18.30;57.20
802;DHT22;383;48.766;9.270;2022-09-21T12:12:27;18.00;56.50
802;DHT22;383;48.766;9.270;2022-09-21T12:14:59;17.90;56.10
802;DHT22;383;48.766;9.270;2022-09-21T12:17:37;17.80;57.00
802;DHT22;383;48.766;9.270;2022-09-21T12:20:09;17.70;56.60
802;DHT22;383;48.766;9.270;2022-09-21T12:22:40;17.60;57.80
802;DHT22;383;48.766;9.270;2022-09-21T12:25:12;17.50;57.00
802;DHT22;383;48.766;9.270;2022-09-21T12:27:45;17.60;57.10
802;DHT22;383;48.766;9.270;2022-09-21T12:30:16;17.70;56.70
802;DHT22;383;48.766;9.270;2022-09-21T12:32:50;17.80;58.10
802;DHT22;383;48.766;9.270;2022-09-21T12:35:25;17.90;55.60
802;DHT22;383;48.766;9.270;2022-09-21T12:37:57;18.00;55.90
802;DHT22;383;48.766;9.270;2022-09-21T12:40:30;18.10;56.70
802;DHT22;383;48.766;9.270;2022-09-21T12:43:04;18.40;56.90
802;DHT22;383;48.766;9.270;2022-09-21T12:45:36;18.60;55.00
802;DHT22;383;48.766;9.270;2022-09-21T12:48:09;18.80;52.40
802;DHT22;383;48.766;9.270;2022-09-21T12:50:41;18.90;52.50
802;DHT22;383;48.766;9.270;2022-09-21T12:53:13;18.90;50.80
802;DHT22;383;48.766;9.270;2022-09-21T12:55:47;18.80;51.80
802;DHT22;383;48.766;9.270;2022-09-21T12:58:25;18.50;53.40
802;DHT22;383;48.766;9.270;2022-09-21T13:00:59;18.40;53.30
802;DHT22;383;48.766;9.270;2022-09-21T13:03:33;18.40;52.60
802;DHT22;383;48.766;9.270;2022-09-21T13:06:21;18.40;53.40
802;DHT22;383;48.766;9.270;2022-09-21T13:08:54;18.50;54.40
802;DHT22;383;48.766;9.270;2022-09-21T13:11:22;18.60;51.30
802;DHT22;383;48.766;9.270;2022-09-21T13:13:50;18.70;51.60
802;DHT22;383;48.766;9.270;2022-09-21T13:16:24;18.50;52.30
802;DHT22;383;48.766;9.270;2022-09-21T13:18:56;18.50;51.60
802;DHT22;383;48.766;9.270;2022-09-21T13:21:25;18.60;52.50
802;DHT22;383;48.766;9.270;2022-09-21T13:23:55;18.60;54.50
802;DHT22;383;48.766;9.270;2022-09-21T13:26:32;18.60;54.60
802;DHT22;383;48.766;9.270;2022-09-21T13:31:56;18.80;54.00
802;DHT22;383;48.766;9.270;2022-09-21T13:34:29;18.70;54.40
802;DHT22;383;48.766;9.270;2022-09-21T13:43:18;18.20;53.60
802;DHT22;383;48.766;9.270;2022-09-21T13:45:51;17.80;53.60
802;DHT22;383;48.766;9.270;2022-09-21T13:48:20;17.60;55.50
802;DHT22;383;48.766;9.270;2022-09-21T13:50:55;17.50;56.60
802;DHT22;383;48.766;9.270;2022-09-21T13:53:28;17.40;56.40
802;DHT22;383;48.766;9.270;2022-09-21T13:56:00;17.40;57.00
802;DHT22;383;48.766;9.270;2022-09-21T13:58:34;17.30;58.00
802;DHT22;383;48.766;9.270;2022-09-21T14:01:04;17.20;58.50
802;DHT22;383;48.766;9.270;2022-09-21T14:03:33;17.20;56.60
802;DHT22;383;48.766;9.270;2022-09-21T14:06:05;17.20;56.50
802;DHT22;383;48.766;9.270;2022-09-21T14:08:36;17.50;56.90
802;DHT22;383;48.766;9.270;2022-09-21T14:11:06;17.80;56.10
802;DHT22;383;48.766;9.270;2022-09-21T14:13:35;18.20;55.40
802;DHT22;383;48.766;9.270;2022-09-21T14:22:33;18.60;52.80
802;DHT22;383;48.766;9.270;2022-09-21T14:25:26;18.50;53.50
802;DHT22;383;48.766;9.270;2022-09-21T14:27:58;18.50;54.10
802;DHT22;383;48.766;9.270;2022-09-21T14:30:26;18.30;55.60
802;DHT22;383;48.766;9.270;2022-09-21T14:33:09;18.30;53.60
802;DHT22;383;48.766;9.270;2022-09-21T14:35:40;18.20;53.10
802;DHT22;383;48.766;9.270;2022-09-21T14:38:16;18.30;52.80
802;DHT22;383;48.766;9.270;2022-09-21T14:40:46;18.40;52.90
802;DHT22;383;48.766;9.270;2022-09-21T14:43:16;18.40;53.10
802;DHT22;383;48.766;9.270;2022-09-21T14:45:52;18.40;53.10
802;DHT22;383;48.766;9.270;2022-09-21T14:48:27;18.40;54.70
802;DHT22;383;48.766;9.270;2022-09-21T14:50:59;18.40;53.50
802;DHT22;383;48.766;9.270;2022-09-21T14:53:49;18.40;52.80
802;DHT22;383;48.766;9.270;2022-09-21T14:56:34;18.20;52.60
802;DHT22;383;48.766;9.270;2022-09-21T14:59:15;18.10;52.60
802;DHT22;383;48.766;9.270;2022-09-21T15:01:54;18.10;50.90
802;DHT22;383;48.766;9.270;2022-09-21T15:04:37;18.10;51.20
802;DHT22;383;48.766;9.270;2022-09-21T15:07:19;18.00;51.50
802;DHT22;383;48.766;9.270;2022-09-21T15:10:19;17.90;52.30
802;DHT22;383;48.766;9.270;2022-09-21T15:16:12;18.00;51.90
802;DHT22;383;48.766;9.270;2022-09-21T15:18:44;18.00;51.60
802;DHT22;383;48.766;9.270;2022-09-21T15:21:20;17.90;51.00
802;DHT22;383;48.766;9.270;2022-09-21T15:23:48;17.90;50.90
802;DHT22;383;48.766;9.270;2022-09-21T15:26:20;17.90;52.50
802;DHT22;383;48.766;9.270;2022-09-21T15:28:53;17.70;52.90
802;DHT22;383;48.766;9.270;2022-09-21T15:31:20;17.70;53.30
802;DHT22;383;48.766;9.270;2022-09-21T15:33:47;17.70;52.10
802;DHT22;383;48.766;9.270;2022-09-21T15:36:19;17.70;52.50
802;DHT22;383;48.766;9.270;2022-09-21T15:38:47;17.60;53.80
802;DHT22;383;48.766;9.270;2022-09-21T15:41:37;17.60;53.60
802;DHT22;383;48.766;9.270;2022-09-21T15:44:11;17.60;52.90
802;DHT22;383;48.766;9.270;2022-09-21T15:46:39;17.60;53.00
802;DHT22;383;48.766;9.270;2022-09-21T15:49:10;17.50;53.40
802;DHT22;383;48.766;9.270;2022-09-21T15:51:39;17.50;52.90
802;DHT22;383;48.766;9.270;2022-09-21T15:54:25;17.40;54.30
802;DHT22;383;48.766;9.270;2022-09-21T15:56:56;17.40;52.80
802;DHT22;383;48.766;9.270;2022-09-21T15:59:23;17.50;51.80
802;DHT22;383;48.766;9.270;2022-09-21T16:01:53;17.40;51.60
802;DHT22;383;48.766;9.270;2022-09-21T16:04:22;17.30;52.90
802;DHT22;383;48.766;9.270;2022-09-21T16:06:58;17.30;53.00
802;DHT22;383;48.766;9.270;2022-09-21T16:09:37;17.20;53.00
802;DHT22;383;48.766;9.270;2022-09-21T16:12:39;17.20;52.10
802;DHT22;383;48.766;9.270;2022-09-21T16:15:18;17.10;53.10
802;DHT22;383;48.766;9.270;2022-09-21T16:18:04;17.00;53.00
802;DHT22;383;48.766;9.270;2022-09-21T16:20:40;17.00;53.00
802;DHT22;383;48.766;9.270;2022-09-21T16:23:13;17.00;54.00
802;DHT22;383;48.766;9.270;2022-09-21T16:25:40;16.80;54.60
802;DHT22;383;48.766;9.270;2022-09-21T16:28:33;16.70;53.80
802;DHT22;383;48.766;9.270;2022-09-21T16:31:31;16.70;53.50
802;DHT22;383;48.766;9.270;2022-09-21T16:36:49;16.50;54.50
802;DHT22;383;48.766;9.270;2022-09-21T16:39:17;16.50;54.90
802;DHT22;383;48.766;9.270;2022-09-21T16:41:54;16.40;54.60
802;DHT22;383;48.766;9.270;2022-09-21T16:44:24;16.40;54.90
802;DHT22;383;48.766;9.270;2022-09-21T16:46:57;16.30;55.90
802;DHT22;383;48.766;9.270;2022-09-21T16:49:26;16.30;56.40
802;DHT22;383;48.766;9.270;2022-09-21T16:51:54;16.20;57.40
802;DHT22;383;48.766;9.270;2022-09-21T16:54:22;16.20;57.10
802;DHT22;383;48.766;9.270;2022-09-21T16:56:52;16.20;57.80
802;DHT22;383;48.766;9.270;2022-09-21T16:59:20;16.10;58.80
802;DHT22;383;48.766;9.270;2022-09-21T17:01:49;16.00;59.50
802;DHT22;383;48.766;9.270;2022-09-21T17:04:18;16.00;59.10
802;DHT22;383;48.766;9.270;2022-09-21T17:06:47;15.80;60.00
802;DHT22;383;48.766;9.270;2022-09-21T17:09:17;15.80;60.60
802;DHT22;383;48.766;9.270;2022-09-21T17:11:45;15.70;61.90
802;DHT22;383;48.766;9.270;2022-09-21T17:14:13;15.60;62.60
802;DHT22;383;48.766;9.270;2022-09-21T17:16:45;15.40;65.00
802;DHT22;383;48.766;9.270;2022-09-21T17:19:14;15.30;66.80
802;DHT22;383;48.766;9.270;2022-09-21T17:21:41;15.20;67.60
802;DHT22;383;48.766;9.270;2022-09-21T17:24:10;15.00;68.60
802;DHT22;383;48.766;9.270;2022-09-21T17:26:39;14.90;70.30
802;DHT22;383;48.766;9.270;2022-09-21T17:29:17;14.70;70.90
802;DHT22;383;48.766;9.270;2022-09-21T17:31:49;14.60;72.00
802;DHT22;383;48.766;9.270;2022-09-21T17:34:20;14.40;72.00
802;DHT22;383;48.766;9.270;2022-09-21T17:36:48;14.30;72.30
802;DHT22;383;48.766;9.270;2022-09-21T17:39:16;14.20;72.80